ADDS METAR Data INFO
IDs: Format: Raw Decoded Include TAF

Data at: 1914 UTC 19 Jul 2018

KHEZ 191856Z AUTO 26004KT 10SM FEW035 33/24 A2993 RMK AO2 SLP137 T03280244
KHEZ 191756Z AUTO 28006KT 10SM BKN031 33/25 A2995 RMK AO2 SLP143 T03280250 10328 20250 56011
KHEZ 191656Z AUTO 26004KT 10SM FEW025 32/26 A2996 RMK AO2 SLP146 T03220256
KHEZ 191556Z AUTO 30005KT 10SM FEW022 31/26 A2997 RMK AO2 SLP151 T03110256
KHEZ 191456Z AUTO 23005KT 10SM CLR 29/26 A2998 RMK AO2 SLP154 T02940256 50005
KHEZ 191356Z AUTO 17003KT 10SM FEW120 27/25 A2999 RMK AO2 SLP155 T02670250
KHEZ 191256Z AUTO 18004KT 8SM SCT120 26/24 A2998 RMK AO2 SLP153 T02560244
KHEZ 191156Z AUTO 00000KT 8SM SCT120 25/24 A2997 RMK AO2 SLP149 T02500244 10261 20250 51014
KHEZ 191056Z AUTO 16003KT 9SM BKN120 25/24 A2996 RMK AO2 SLP146 T02500239
KHEZ 190956Z AUTO 15005KT 6SM BR SCT120 25/24 A2994 RMK AO2 SLP141 T02500239
KHEZ 190856Z AUTO 18003KT 10SM CLR 26/24 A2993 RMK AO2 SLP134 T02560239 55000
KHEZ 190756Z AUTO 00000KT 10SM CLR 26/24 A2991 RMK AO2 SLP130 T02560244
KHEZ 190656Z AUTO 20004KT 9SM CLR 26/24 A2992 RMK AO2 SLP131 T02560244
KHEZ 190556Z AUTO 20004KT 10SM CLR 26/25 A2993 RMK AO2 SLP134 T02610250 10294 20261 58010
KHEZ 190356Z AUTO 20003KT 10SM CLR 27/26 A2995 RMK AO2 SLP143 T02670256
KHEZ 190256Z AUTO 15004KT 10SM CLR 27/26 A2996 RMK AO2 SLP144 T02720256 51004
KHEZ 190156Z AUTO 00000KT 10SM CLR 28/26 A2995 RMK AO2 SLP143 T02780256
KHEZ 190056Z AUTO 14003KT 10SM CLR 29/25 A2995 RMK AO2 SLP144 T02890250
KHEZ 182356Z AUTO 00000KT 10SM FEW003 29/26 A2994 RMK AO2 RAB36E50 SLP141 P0000 60000 T02940256 10322 20294 56004
KHEZ 182256Z AUTO 24003KT 10SM FEW080 30/24 A2995 RMK AO2 SLP144 T03000244
KHEZ 182156Z AUTO 27006KT 10SM CLR 30/24 A2993 RMK AO2 SLP137 T03000244
KHEZ 182056Z AUTO 31010KT 10SM CLR 31/24 A2996 RMK AO2 LTG DSNT SE SLP145 60000 T03110239 56017
KHEZ 181956Z AUTO 30009KT 10SM FEW028 31/25 A2997 RMK AO2 LTG DSNT NE RAE06 SLP149 P0000 T03110250
KHEZ 181906Z AUTO 29010KT 10SM FEW027 SCT060 SCT070 31/26 A2998 RMK AO2 LTG DSNT NE AND E RAE06 P0000
KHEZ 181856Z AUTO 28011G18KT 10SM -RA BKN027 BKN038 OVC070 30/26 A2999 RMK AO2 LTG DSNT NE AND E RAB55 SLP156 P0000 T03000256
KHEZ 181833Z AUTO 28009KT 10SM BKN027 BKN033 31/25 A3000 RMK AO2 LTG DSNT N
KHEZ 181756Z AUTO 29008KT 10SM FEW024 SCT070 32/25 A3001 RMK AO2 SLP162 T03170250 10317 20256 56008
KHEZ 181656Z AUTO VRB06KT 10SM FEW070 31/25 A3001 RMK AO2 SLP165 T03060250
KHEZ 181556Z AUTO VRB06KT 10SM SCT070 30/24 A3002 RMK AO2 SLP167 T03000244
KHEZ 181456Z AUTO 23008KT 10SM FEW070 29/25 A3003 RMK AO2 SLP170 T02890250 50002
KHEZ 181428Z AUTO 27005KT 10SM SCT014 BKN070 28/25 A3004 RMK AO2
KHEZ 181407Z AUTO 26007KT 10SM BKN012 28/25 A3004 RMK AO2
KHEZ 181356Z AUTO 24008KT 10SM SCT012 28/26 A3003 RMK AO2 SLP171 T02830256 TSNO
KHEZ 181309Z AUTO 19003KT 8SM SCT009 26/25 A3002 RMK AO2
KHEZ 181256Z AUTO 18004KT 7SM BKN009 BKN075 26/25 A3002 RMK AO2 CIG 006V012 SLP168 T02610250
KHEZ 181220Z AUTO 20004KT 7SM FEW007 OVC075 26/25 A3002 RMK AO2
KHEZ 181156Z AUTO 00000KT 7SM OVC070 26/24 A3002 RMK AO2 SLP167 70040 T02560244 10256 20244 51009
KHEZ 181056Z AUTO 18003KT 7SM FEW010 BKN090 26/24 A3002 RMK AO2 SLP165 T02560244
KHEZ 180956Z AUTO 17005KT 8SM BKN075 OVC090 25/24 A3000 RMK AO2 SLP161 T02500244
KHEZ 180856Z AUTO 19003KT 8SM SCT070 BKN090 25/24 A2999 RMK AO2 SLP158 T02500239 53000
KHEZ 180756Z AUTO 20004KT 9SM FEW100 24/23 A2998 RMK AO2 SLP151 T02440233